Vanetia, Texas
Current Conditions -  °F | °C
As of 2:35 AM on Saturday 29 Nov 2014 (Local Time) from KLHB Reporting Station
Clear Clear  
Wind Chill: 11°   Ceiling: Unl
Heat Index: 11°   Visibility: 10mi
Dew Point: 10°   Wind: 6mph
Humidity: 96%   Direction: 110°ESE
Pressure: 30.07"   Gusts: NA
Location:  31.2206°N, 96.2362°W
Report Text: KLHB 290835Z AUTO 11005KT 10SM CLR 11/10 A3007 RMK AO2 T01100104
Loading
Personal Weather Stations






























Interactive Weather Map New forecast layout! Learn more

10-Day Weather Forecast

Advertisements
Track Severe Weather on mobile